CheckWX is a tool to help pilots better visualize weather data.  It is not intended as a substitute for an official pre-flight weather briefing.

12:21:26 UTC

KCKM METAR
Fletcher Field Airport
Clarksdale, Mississippi, USA
Current

6 mins ago

KCKM 221215Z AUTO 36010KT 2SM BR BKN005 BKN023 OVC039 09/09 A3012 RMK A01
Observed
Feb-22 @ 12:15 UTC
Wind
  • 360° at 10 KTS
Visibility
2 SM
Flight Rules
IFR
Conditions
Mist
Cloud Levels
  • Broken at 500' AGL
  • Broken at 2,300' AGL
  • Overcast at 3,900' AGL
Temperature
C / 48°F
Dewpoint
C / 48°F
Humidity
100%
Altimeter
30.12" Hg
Pressure
1020.02 hPa
Previous

26 mins ago

KCKM 221155Z AUTO 01010KT 3SM BR OVC004 09/09 A3013 RMK A01 P0013
Observed
Feb-22 @ 11:55 UTC
Wind
  • 010° at 10 KTS
Visibility
3 SM
Flight Rules
LIFR
Conditions
Mist
Cloud Levels
  • Overcast at 400' AGL
Temperature
C / 48°F
Dewpoint
C / 48°F
Humidity
100%
Altimeter
30.13" Hg
Pressure
1020.32 hPa
Current Rain
0.13"
Previous

46 mins ago

KCKM 221135Z AUTO 01011KT 4SM BR BKN004 OVC007 09/09 A3010 RMK A01
Observed
Feb-22 @ 11:35 UTC
Wind
  • 010° at 11 KTS
Visibility
4 SM
Flight Rules
LIFR
Conditions
Mist
Cloud Levels
  • Broken at 400' AGL
  • Overcast at 700' AGL
Temperature
C / 48°F
Dewpoint
C / 48°F
Humidity
100%
Altimeter
30.1" Hg
Pressure
1019.32 hPa